Accueil
METAR-TAF:

METAR-TAF

Aéroports :

Sion, Suisse

Aéroport de Sion

latitude: 46-13N, longitude: 007-20E, altitude: 482 m

Observation

Le bulletin a été fait il y a 29 minutes, à 03:20 UTC
Température 0°C
Humidité 93%
Pression 993 hPa
Visibilité: 8000 m

METAR: LSGS 110320Z AUTO 36032GP99KT 8000 NCD M00/M01 Q0993

Heure: 04:49 (03:49 UTC)

Prévision

Le bulletin a été fait il y a 13 heures et 24 minutes, à 14:25 UTC
Prévision valable du 10 à 15 UTC au 10 à 24 UTC
Vent 4 kt de est/nord-est
Visibilité: 0500 m
à une hauteur de 200 ft
neige
Temporairement
du 10 à 15 UTC au 10 à 24 UTC
Visibilité: 0300 m
à une hauteur de 100 ft
forte neige

TAF: LSGS 101425Z 1015/1024 07004KT 0500 SN VV002 TEMPO 1015/1024 0300 +SN VV001

Observations et prévisions météorologiques de plus de 4000 aéroports (messages METAR et TAF).

Les stations disponibles sont représentées par des disques jaunes et rouges sur la carte.

Passer la souris dessus pour voir le nom de la station.

Cliquer dessus pour voir les observations et prévisions météorologiques.

Pour changer de carte: cliquez sur les boutons verts avec une croix noire pour zoomer, sur le bouton vert avec un tiret pour effectuer un zoom arrière, ou sur les flèches vertes pour les cartes adjacentes.


METAR-TAF: